Time,TemperatureF,DewpointF,PressureIn,WindDirection,WindDirectionDegrees,WindSpeedMPH,WindSpeedGustMPH,Humidity,HourlyPrecipIn,Conditions,Clouds,dailyrainin,SolarRadiationWatts/m^2,SoftwareType,DateUTC
2013-12-19 00:01:00,17.3,13.6,29.98,West,260,0.0,1.0,85,0.00,,,0.00,0.0,WUHU216DAVISVP2,2013-12-19 05:01:00,
2013-12-19 00:06:00,17.4,13.6,29.98,West,260,0.0,1.0,85,0.00,,,0.00,0.0,WUHU216DAVISVP2,2013-12-19 05:06:00,
2013-12-19 00:11:00,17.5,13.8,29.98,West,260,0.0,1.0,85,0.00,,,0.00,0.0,WUHU216DAVISVP2,2013-12-19 05:11:00,
2013-12-19 00:16:00,17.5,14.0,29.98,West,260,0.0,1.0,86,0.00,,,0.00,0.0,WUHU216DAVISVP2,2013-12-19 05:16:00,
2013-12-19 00:21:00,17.5,14.0,29.98,West,260,0.0,1.0,86,0.00,,,0.00,0.0,WUHU216DAVISVP2,2013-12-19 05:21:00,
2013-12-19 00:26:00,17.5,14.0,29.98,West,260,0.0,1.0,86,0.00,,,0.00,0.0,WUHU216DAVISVP2,2013-12-19 05:26:00,
2013-12-19 00:31:00,17.5,14.0,29.97,West,260,0.0,1.0,86,0.00,,,0.00,0.0,WUHU216DAVISVP2,2013-12-19 05:31:00,
2013-12-19 00:36:00,17.6,14.1,29.98,West,260,0.0,1.0,86,0.00,,,0.00,0.0,WUHU216DAVISVP2,2013-12-19 05:36:00,
2013-12-19 00:41:00,17.6,14.1,29.98,West,260,0.0,1.0,86,0.00,,,0.00,0.0,WUHU216DAVISVP2,2013-12-19 05:41:00,
2013-12-19 00:46:00,17.9,14.4,29.97,West,260,0.0,1.0,86,0.00,,,0.00,0.0,WUHU216DAVISVP2,2013-12-19 05:46:00,
2013-12-19 00:51:00,18.0,14.5,29.97,West,260,0.0,1.0,86,0.00,,,0.00,0.0,WUHU216DAVISVP2,2013-12-19 05:51:00,
2013-12-19 00:56:00,17.9,14.1,29.97,West,260,0.0,0.0,85,0.00,,,0.00,0.0,WUHU216DAVISVP2,2013-12-19 05:56:00,
2013-12-19 01:01:00,17.8,14.3,29.98,West,260,0.0,0.0,86,0.00,,,0.00,0.0,WUHU216DAVISVP2,2013-12-19 06:01:00,
2013-12-19 01:06:00,17.8,14.3,29.98,West,260,1.0,2.0,86,0.00,,,0.00,0.0,WUHU216DAVISVP2,2013-12-19 06:06:00,
2013-12-19 01:11:00,17.7,14.2,29.98,West,260,0.0,2.0,86,0.00,,,0.00,0.0,WUHU216DAVISVP2,2013-12-19 06:11:00,
2013-12-19 01:16:00,17.8,14.3,29.98,West,260,0.0,2.0,86,0.00,,,0.00,0.0,WUHU216DAVISVP2,2013-12-19 06:16:00,
2013-12-19 01:21:00,18.0,14.5,29.98,West,260,0.0,2.0,86,0.00,,,0.00,0.0,WUHU216DAVISVP2,2013-12-19 06:21:00,
2013-12-19 01:26:00,18.0,14.5,29.98,West,260,0.0,2.0,86,0.00,,,0.00,0.0,WUHU216DAVISVP2,2013-12-19 06:26:00,
2013-12-19 01:31:00,18.0,14.5,29.98,West,260,0.0,2.0,86,0.00,,,0.00,0.0,WUHU216DAVISVP2,2013-12-19 06:31:00,
2013-12-19 01:36:00,18.0,14.5,29.98,West,260,0.0,1.0,86,0.00,,,0.00,0.0,WUHU216DAVISVP2,2013-12-19 06:36:00,
2013-12-19 01:41:00,18.3,14.8,29.99,West,260,0.0,1.0,86,0.00,,,0.00,0.0,WUHU216DAVISVP2,2013-12-19 06:41:00,
2013-12-19 01:46:00,18.6,15.1,29.99,West,260,0.0,1.0,86,0.00,,,0.00,0.0,WUHU216DAVISVP2,2013-12-19 06:46:00,
2013-12-19 01:51:00,18.7,15.2,29.99,West,260,0.0,1.0,86,0.00,,,0.00,0.0,WUHU216DAVISVP2,2013-12-19 06:51:00,
2013-12-19 01:56:00,18.9,15.4,29.99,West,260,0.0,1.0,86,0.00,,,0.00,0.0,WUHU216DAVISVP2,2013-12-19 06:56:00,
2013-12-19 02:01:00,18.9,15.4,29.99,West,260,1.0,2.0,86,0.00,,,0.00,0.0,WUHU216DAVISVP2,2013-12-19 07:01:00,
2013-12-19 02:06:00,18.9,15.4,29.99,West,260,0.0,2.0,86,0.00,,,0.00,0.0,WUHU216DAVISVP2,2013-12-19 07:06:00,
2013-12-19 02:11:00,18.9,15.4,29.99,West,260,0.0,2.0,86,0.00,,,0.00,0.0,WUHU216DAVISVP2,2013-12-19 07:11:00,
2013-12-19 02:16:00,19.0,15.5,29.99,West,260,0.0,2.0,86,0.00,,,0.00,0.0,WUHU216DAVISVP2,2013-12-19 07:16:00,
2013-12-19 02:21:00,19.2,15.7,29.99,West,260,0.0,2.0,86,0.00,,,0.00,0.0,WUHU216DAVISVP2,2013-12-19 07:21:00,
2013-12-19 02:26:00,19.3,15.8,29.99,West,260,2.0,2.0,86,0.00,,,0.00,0.0,WUHU216DAVISVP2,2013-12-19 07:26:00,
2013-12-19 02:31:00,19.3,15.8,29.99,West,260,0.0,2.0,86,0.00,,,0.00,0.0,WUHU216DAVISVP2,2013-12-19 07:31:00,
2013-12-19 02:36:00,19.4,15.9,29.99,West,260,0.0,2.0,86,0.00,,,0.00,0.0,WUHU216DAVISVP2,2013-12-19 07:36:00,
2013-12-19 02:41:00,19.5,16.0,29.99,West,260,0.0,2.0,86,0.00,,,0.00,0.0,WUHU216DAVISVP2,2013-12-19 07:41:00,
2013-12-19 02:46:00,19.8,16.3,30.00,West,271,0.0,3.0,86,0.00,,,0.00,0.0,WUHU216DAVISVP2,2013-12-19 07:46:00,
2013-12-19 02:51:00,19.9,16.4,30.00,West,271,0.0,3.0,86,0.00,,,0.00,0.0,WUHU216DAVISVP2,2013-12-19 07:51:00,
2013-12-19 02:56:00,20.1,16.6,30.00,West,271,0.0,3.0,86,0.00,,,0.00,0.0,WUHU216DAVISVP2,2013-12-19 07:56:00,
2013-12-19 03:01:00,20.3,16.7,30.00,West,271,0.0,3.0,86,0.00,,,0.00,0.0,WUHU216DAVISVP2,2013-12-19 08:01:00,
2013-12-19 03:06:00,20.3,16.7,30.00,WSW,250,1.0,3.0,86,0.00,,,0.00,0.0,WUHU216DAVISVP2,2013-12-19 08:06:00,
2013-12-19 03:11:00,20.9,17.6,29.99,WSW,254,0.0,3.0,87,0.00,,,0.00,0.0,WUHU216DAVISVP2,2013-12-19 08:11:00,
2013-12-19 03:16:00,20.8,17.3,29.99,WSW,254,0.0,3.0,86,0.00,,,0.00,0.0,WUHU216DAVISVP2,2013-12-19 08:16:00,
2013-12-19 03:21:00,20.6,17.0,29.99,WSW,254,0.0,3.0,86,0.00,,,0.00,0.0,WUHU216DAVISVP2,2013-12-19 08:21:00,
2013-12-19 03:26:00,20.6,17.0,29.99,WSW,254,0.0,2.0,86,0.00,,,0.00,0.0,WUHU216DAVISVP2,2013-12-19 08:26:00,
2013-12-19 03:31:00,20.6,17.0,29.99,WSW,254,0.0,1.0,86,0.00,,,0.00,0.0,WUHU216DAVISVP2,2013-12-19 08:31:00,
2013-12-19 03:36:00,20.7,17.2,29.99,WSW,254,0.0,1.0,86,0.00,,,0.00,0.0,WUHU216DAVISVP2,2013-12-19 08:36:00,
2013-12-19 03:41:00,20.8,17.5,29.99,WSW,254,0.0,1.0,87,0.00,,,0.00,0.0,WUHU216DAVISVP2,2013-12-19 08:41:00,
2013-12-19 03:46:00,20.9,17.3,29.99,WSW,254,0.0,2.0,86,0.00,,,0.00,0.0,WUHU216DAVISVP2,2013-12-19 08:46:00,
2013-12-19 03:51:00,21.0,17.7,29.99,WSW,254,0.0,2.0,87,0.00,,,0.00,0.0,WUHU216DAVISVP2,2013-12-19 08:51:00,
2013-12-19 03:56:00,21.1,17.8,29.99,WSW,254,0.0,2.0,87,0.00,,,0.00,0.0,WUHU216DAVISVP2,2013-12-19 08:56:00,
2013-12-19 04:01:00,21.1,17.8,29.99,WSW,254,0.0,2.0,87,0.00,,,0.00,0.0,WUHU216DAVISVP2,2013-12-19 09:01:00,
2013-12-19 04:06:00,21.1,17.8,29.99,WSW,254,1.0,1.0,87,0.00,,,0.00,0.0,WUHU216DAVISVP2,2013-12-19 09:06:00,
2013-12-19 04:11:00,21.6,18.3,29.99,WSW,239,0.0,1.0,87,0.00,,,0.00,0.0,WUHU216DAVISVP2,2013-12-19 09:11:00,
2013-12-19 04:16:00,21.8,18.5,29.99,WSW,239,0.0,1.0,87,0.00,,,0.00,0.0,WUHU216DAVISVP2,2013-12-19 09:16:00,
2013-12-19 04:21:00,21.6,18.1,29.99,WSW,239,0.0,1.0,86,0.00,,,0.00,0.0,WUHU216DAVISVP2,2013-12-19 09:21:00,
2013-12-19 04:26:00,21.3,17.7,29.99,WSW,239,1.0,1.0,86,0.00,,,0.00,0.0,WUHU216DAVISVP2,2013-12-19 09:26:00,
2013-12-19 04:31:00,21.3,18.0,29.99,WSW,239,0.0,1.0,87,0.00,,,0.00,0.0,WUHU216DAVISVP2,2013-12-19 09:31:00,
2013-12-19 04:36:00,21.1,17.5,29.99,WSW,239,1.0,1.0,86,0.00,,,0.00,0.0,WUHU216DAVISVP2,2013-12-19 09:36:00,
2013-12-19 04:41:00,21.0,17.7,29.99,SW,214,0.0,2.0,87,0.00,,,0.00,0.0,WUHU216DAVISVP2,2013-12-19 09:41:00,
2013-12-19 04:46:00,20.7,17.4,29.98,East,86,0.0,3.0,87,0.00,,,0.00,0.0,WUHU216DAVISVP2,2013-12-19 09:46:00,
2013-12-19 04:51:00,20.3,16.8,29.98,NW,313,1.0,3.0,86,0.00,,,0.00,0.0,WUHU216DAVISVP2,2013-12-19 09:51:00,
2013-12-19 04:56:00,19.7,16.2,29.99,NW,313,1.0,3.0,86,0.00,,,0.00,0.0,WUHU216DAVISVP2,2013-12-19 09:56:00,
2013-12-19 05:01:00,19.1,15.8,29.99,NE,35,2.0,3.0,87,0.00,,,0.00,0.0,WUHU216DAVISVP2,2013-12-19 10:01:00,
2013-12-19 05:06:00,19.1,15.8,29.99,West,259,2.0,3.0,87,0.00,,,0.00,0.0,WUHU216DAVISVP2,2013-12-19 10:06:00,
2013-12-19 05:11:00,19.0,15.8,29.99,East,97,0.0,3.0,87,0.00,,,0.00,0.0,WUHU216DAVISVP2,2013-12-19 10:11:00,
2013-12-19 05:16:00,18.8,15.5,29.99,East,97,0.0,3.0,87,0.00,,,0.00,0.0,WUHU216DAVISVP2,2013-12-19 10:16:00,
2013-12-19 05:21:00,18.2,14.9,29.99,East,97,1.0,3.0,87,0.00,,,0.00,0.0,WUHU216DAVISVP2,2013-12-19 10:21:00,
2013-12-19 05:26:00,18.4,15.1,29.99,SW,227,0.0,3.0,87,0.00,,,0.00,0.0,WUHU216DAVISVP2,2013-12-19 10:26:00,
2013-12-19 05:31:00,18.3,15.0,29.99,SSW,207,1.0,3.0,87,0.00,,,0.00,0.0,WUHU216DAVISVP2,2013-12-19 10:31:00,
2013-12-19 05:36:00,18.3,15.0,29.99,SSW,207,1.0,3.0,87,0.00,,,0.00,0.0,WUHU216DAVISVP2,2013-12-19 10:36:00,
2013-12-19 05:41:00,18.5,15.5,29.99,SSW,207,0.0,3.0,88,0.00,,,0.00,0.0,WUHU216DAVISVP2,2013-12-19 10:41:00,
2013-12-19 05:46:00,18.5,15.5,29.99,SSW,207,0.0,2.0,88,0.00,,,0.00,0.0,WUHU216DAVISVP2,2013-12-19 10:46:00,
2013-12-19 05:51:00,18.6,15.6,29.99,SSW,207,1.0,2.0,88,0.00,,,0.00,0.0,WUHU216DAVISVP2,2013-12-19 10:51:00,
2013-12-19 05:56:00,18.5,15.2,29.99,SSW,207,0.0,2.0,87,0.00,,,0.00,0.0,WUHU216DAVISVP2,2013-12-19 10:56:00,
2013-12-19 06:01:00,18.7,15.7,29.99,SSW,207,0.0,2.0,88,0.00,,,0.00,0.0,WUHU216DAVISVP2,2013-12-19 11:01:00,
2013-12-19 06:06:00,18.8,15.8,29.99,SSW,207,1.0,2.0,88,0.00,,,0.00,0.0,WUHU216DAVISVP2,2013-12-19 11:06:00,
2013-12-19 06:11:00,18.8,15.5,29.99,SSW,207,0.0,2.0,87,0.00,,,0.00,0.0,WUHU216DAVISVP2,2013-12-19 11:11:00,
2013-12-19 06:16:00,19.0,15.7,29.99,SSW,207,0.0,1.0,87,0.00,,,0.00,0.0,WUHU216DAVISVP2,2013-12-19 11:16:00,
2013-12-19 06:21:00,19.2,16.2,29.98,SSW,207,0.0,2.0,88,0.00,,,0.00,0.0,WUHU216DAVISVP2,2013-12-19 11:21:00,
2013-12-19 06:26:00,19.3,16.3,29.98,SSW,207,0.0,2.0,88,0.00,,,0.00,0.0,WUHU216DAVISVP2,2013-12-19 11:26:00,
2013-12-19 06:31:00,19.4,16.4,29.98,SE,142,2.0,2.0,88,0.00,,,0.00,0.0,WUHU216DAVISVP2,2013-12-19 11:31:00,
2013-12-19 06:36:00,19.6,16.3,29.98,SE,143,0.0,2.0,87,0.00,,,0.00,0.0,WUHU216DAVISVP2,2013-12-19 11:36:00,
2013-12-19 06:41:00,19.6,16.3,29.98,SE,143,0.0,2.0,87,0.00,,,0.00,0.0,WUHU216DAVISVP2,2013-12-19 11:41:00,
2013-12-19 06:46:00,19.8,16.8,29.98,SE,140,0.0,2.0,88,0.00,,,0.00,0.0,WUHU216DAVISVP2,2013-12-19 11:46:00,
2013-12-19 06:51:00,20.0,17.0,29.98,SE,140,0.0,2.0,88,0.00,,,0.00,0.0,WUHU216DAVISVP2,2013-12-19 11:51:00,
2013-12-19 06:56:00,20.1,16.8,29.97,SE,140,0.0,1.0,87,0.00,,,0.00,0.0,WUHU216DAVISVP2,2013-12-19 11:56:00,
2013-12-19 07:01:00,20.2,17.0,29.97,SE,140,0.0,1.0,87,0.00,,,0.00,0.0,WUHU216DAVISVP2,2013-12-19 12:01:00,
2013-12-19 07:06:00,20.2,16.9,29.97,SE,142,1.0,2.0,87,0.00,,,0.00,0.0,WUHU216DAVISVP2,2013-12-19 12:06:00,
2013-12-19 07:11:00,20.2,16.9,29.97,SE,142,0.0,2.0,87,0.00,,,0.00,0.0,WUHU216DAVISVP2,2013-12-19 12:11:00,
2013-12-19 07:16:00,20.4,17.4,29.97,SE,142,1.0,2.0,88,0.00,,,0.00,0.0,WUHU216DAVISVP2,2013-12-19 12:16:00,
2013-12-19 07:21:00,20.4,17.4,29.96,SE,142,0.0,2.0,88,0.00,,,0.00,0.0,WUHU216DAVISVP2,2013-12-19 12:21:00,
2013-12-19 07:26:00,20.6,17.6,29.96,SE,142,0.0,2.0,88,0.00,,,0.00,0.0,WUHU216DAVISVP2,2013-12-19 12:26:00,
2013-12-19 07:31:00,20.7,17.7,29.97,SE,142,0.0,2.0,88,0.00,,,0.00,0.0,WUHU216DAVISVP2,2013-12-19 12:31:00,
2013-12-19 07:36:00,20.8,17.5,29.96,SSW,208,1.0,2.0,87,0.00,,,0.00,5.0,WUHU216DAVISVP2,2013-12-19 12:36:00,
2013-12-19 07:41:00,20.9,17.9,29.96,SSW,209,1.0,2.0,88,0.00,,,0.00,7.0,WUHU216DAVISVP2,2013-12-19 12:41:00,
2013-12-19 07:46:00,21.0,18.0,29.96,SSW,209,0.0,2.0,88,0.00,,,0.00,9.0,WUHU216DAVISVP2,2013-12-19 12:46:00,
2013-12-19 07:51:00,21.2,17.9,29.96,SSW,209,0.0,2.0,87,0.00,,,0.00,11.0,WUHU216DAVISVP2,2013-12-19 12:51:00,
2013-12-19 07:56:00,21.3,18.0,29.96,SSW,209,0.0,2.0,87,0.00,,,0.00,12.0,WUHU216DAVISVP2,2013-12-19 12:56:00,
2013-12-19 08:01:00,21.3,18.0,29.96,South,188,2.0,2.0,87,0.00,,,0.00,12.0,WUHU216DAVISVP2,2013-12-19 13:01:00,
2013-12-19 08:06:00,21.5,18.5,29.96,South,188,1.0,2.0,88,0.00,,,0.00,14.0,WUHU216DAVISVP2,2013-12-19 13:06:00,
2013-12-19 08:11:00,21.6,18.3,29.96,South,188,0.0,2.0,87,0.00,,,0.00,18.0,WUHU216DAVISVP2,2013-12-19 13:11:00,
2013-12-19 08:16:00,21.8,18.5,29.96,South,188,1.0,2.0,87,0.00,,,0.00,21.0,WUHU216DAVISVP2,2013-12-19 13:16:00,
2013-12-19 08:21:00,21.9,18.6,29.96,South,188,0.0,2.0,87,0.00,,,0.00,21.0,WUHU216DAVISVP2,2013-12-19 13:21:00,
2013-12-19 08:26:00,22.0,18.7,29.96,South,188,0.0,2.0,87,0.00,,,0.00,23.0,WUHU216DAVISVP2,2013-12-19 13:26:00,
2013-12-19 08:31:00,22.2,18.9,29.96,South,189,1.0,2.0,87,0.00,,,0.00,26.0,WUHU216DAVISVP2,2013-12-19 13:31:00,
2013-12-19 08:36:00,22.4,19.1,29.96,South,189,0.0,2.0,87,0.00,,,0.00,26.0,WUHU216DAVISVP2,2013-12-19 13:36:00,
2013-12-19 08:41:00,22.7,19.6,29.96,South,189,0.0,2.0,88,0.00,,,0.00,28.0,WUHU216DAVISVP2,2013-12-19 13:41:00,
2013-12-19 08:46:00,22.9,19.6,29.97,South,189,0.0,2.0,87,0.00,,,0.00,32.0,WUHU216DAVISVP2,2013-12-19 13:46:00,
2013-12-19 08:51:00,23.0,19.7,29.97,South,189,0.0,2.0,87,0.00,,,0.00,39.0,WUHU216DAVISVP2,2013-12-19 13:51:00,
2013-12-19 08:56:00,23.3,20.0,29.97,South,189,0.0,2.0,87,0.00,,,0.00,32.0,WUHU216DAVISVP2,2013-12-19 13:56:00,
2013-12-19 09:01:00,23.4,19.8,29.96,South,189,0.0,2.0,86,0.00,,,0.00,42.0,WUHU216DAVISVP2,2013-12-19 14:01:00,
2013-12-19 09:06:00,23.7,20.1,29.96,South,189,0.0,2.0,86,0.00,,,0.00,30.0,WUHU216DAVISVP2,2013-12-19 14:06:00,
2013-12-19 09:12:00,23.8,20.2,29.96,South,189,1.0,1.0,86,0.00,,,0.00,28.0,WUHU216DAVISVP2,2013-12-19 14:12:00,
2013-12-19 09:17:00,23.9,20.3,29.96,SSW,194,0.0,2.0,86,0.00,,,0.00,28.0,WUHU216DAVISVP2,2013-12-19 14:17:00,
2013-12-19 09:22:00,24.3,20.9,29.96,SSW,194,0.0,2.0,87,0.00,,,0.00,40.0,WUHU216DAVISVP2,2013-12-19 14:22:00,
2013-12-19 09:27:00,24.6,21.0,29.95,SSW,194,0.0,2.0,86,0.00,,,0.00,40.0,WUHU216DAVISVP2,2013-12-19 14:27:00,
2013-12-19 09:32:00,24.9,21.3,29.96,SSW,194,0.0,2.0,86,0.00,,,0.00,46.0,WUHU216DAVISVP2,2013-12-19 14:32:00,
2013-12-19 09:37:00,24.9,21.0,29.95,SSW,194,0.0,1.0,85,0.00,,,0.00,53.0,WUHU216DAVISVP2,2013-12-19 14:37:00,
2013-12-19 09:42:00,25.0,21.4,29.96,SSW,194,0.0,2.0,86,0.00,,,0.00,47.0,WUHU216DAVISVP2,2013-12-19 14:42:00,
2013-12-19 09:47:00,25.2,21.6,29.96,SSW,194,1.0,2.0,86,0.00,,,0.00,58.0,WUHU216DAVISVP2,2013-12-19 14:47:00,
2013-12-19 09:52:00,25.4,21.8,29.95,SSW,194,0.0,2.0,86,0.00,,,0.00,49.0,WUHU216DAVISVP2,2013-12-19 14:52:00,
2013-12-19 09:57:00,25.7,22.1,29.96,SSW,194,0.0,2.0,86,0.00,,,0.00,51.0,WUHU216DAVISVP2,2013-12-19 14:57:00,
2013-12-19 10:02:00,26.0,22.4,29.96,SSW,194,0.0,2.0,86,0.00,,,0.00,44.0,WUHU216DAVISVP2,2013-12-19 15:02:00,
2013-12-19 10:06:00,26.4,22.5,29.95,SSW,194,0.0,0.0,85,0.00,,,0.00,49.0,WUHU216DAVISVP2,2013-12-19 15:06:00,
2013-12-19 10:11:00,26.4,22.2,29.95,SSW,194,0.0,0.0,84,0.00,,,0.00,62.0,WUHU216DAVISVP2,2013-12-19 15:11:00,
2013-12-19 10:16:00,26.5,22.6,29.95,SSW,194,0.0,1.0,85,0.00,,,0.00,69.0,WUHU216DAVISVP2,2013-12-19 15:16:00,
2013-12-19 10:21:00,27.0,22.8,29.95,SSW,194,1.0,1.0,84,0.00,,,0.00,74.0,WUHU216DAVISVP2,2013-12-19 15:21:00,
2013-12-19 10:26:00,27.1,22.6,29.95,SSW,194,0.0,1.0,83,0.00,,,0.00,63.0,WUHU216DAVISVP2,2013-12-19 15:26:00,
2013-12-19 10:31:00,27.4,22.9,29.94,South,188,1.0,2.0,83,0.00,,,0.00,69.0,WUHU216DAVISVP2,2013-12-19 15:31:00,
2013-12-19 10:36:00,27.9,22.8,29.94,ESE,103,1.0,2.0,81,0.00,,,0.00,86.0,WUHU216DAVISVP2,2013-12-19 15:36:00,
2013-12-19 10:41:00,28.4,23.0,29.94,ESE,103,0.0,2.0,80,0.00,,,0.00,95.0,WUHU216DAVISVP2,2013-12-19 15:41:00,
2013-12-19 10:46:00,29.0,23.0,29.93,East,97,1.0,2.0,78,0.00,,,0.00,104.0,WUHU216DAVISVP2,2013-12-19 15:46:00,
2013-12-19 10:51:00,29.5,23.2,29.93,East,97,1.0,2.0,77,0.00,,,0.00,114.0,WUHU216DAVISVP2,2013-12-19 15:51:00,
2013-12-19 10:56:00,30.1,24.1,29.93,East,97,0.0,2.0,78,0.00,,,0.00,105.0,WUHU216DAVISVP2,2013-12-19 15:56:00,
2013-12-19 11:01:00,30.3,24.0,29.93,East,97,0.0,2.0,77,0.00,,,0.00,95.0,WUHU216DAVISVP2,2013-12-19 16:01:00,
2013-12-19 11:06:00,30.0,24.3,29.93,East,97,0.0,2.0,79,0.00,,,0.00,109.0,WUHU216DAVISVP2,2013-12-19 16:06:00,
2013-12-19 11:11:00,31.0,25.0,29.92,East,97,0.0,2.0,78,0.00,,,0.00,125.0,WUHU216DAVISVP2,2013-12-19 16:11:00,
2013-12-19 11:16:00,31.6,24.3,29.92,East,97,0.0,2.0,74,0.00,,,0.00,151.0,WUHU216DAVISVP2,2013-12-19 16:16:00,
2013-12-19 11:21:00,31.6,23.7,29.92,ESE,113,1.0,3.0,72,0.00,,,0.00,151.0,WUHU216DAVISVP2,2013-12-19 16:21:00,
2013-12-19 11:26:00,31.7,23.8,29.92,ESE,108,1.0,3.0,72,0.00,,,0.00,137.0,WUHU216DAVISVP2,2013-12-19 16:26:00,
2013-12-19 11:31:00,31.6,23.3,29.92,ESE,120,1.0,3.0,71,0.00,,,0.00,123.0,WUHU216DAVISVP2,2013-12-19 16:31:00,
2013-12-19 11:36:00,31.3,23.0,29.92,East,92,2.0,3.0,71,0.00,,,0.00,118.0,WUHU216DAVISVP2,2013-12-19 16:36:00,
2013-12-19 11:41:00,31.3,23.0,29.92,East,92,3.0,3.0,71,0.00,,,0.00,123.0,WUHU216DAVISVP2,2013-12-19 16:41:00,
2013-12-19 11:46:00,31.5,22.9,29.92,East,96,3.0,4.0,70,0.00,,,0.00,125.0,WUHU216DAVISVP2,2013-12-19 16:46:00,
2013-12-19 11:51:00,31.5,22.9,29.91,ENE,74,0.0,4.0,70,0.00,,,0.00,139.0,WUHU216DAVISVP2,2013-12-19 16:51:00,
2013-12-19 11:56:00,32.0,23.3,29.91,ENE,76,1.0,4.0,70,0.00,,,0.00,132.0,WUHU216DAVISVP2,2013-12-19 16:56:00,
2013-12-19 12:01:00,32.2,23.2,29.91,ENE,78,2.0,4.0,69,0.00,,,0.00,121.0,WUHU216DAVISVP2,2013-12-19 17:01:00,
2013-12-19 12:06:00,32.3,23.0,29.91,ESE,105,1.0,3.0,68,0.00,,,0.00,116.0,WUHU216DAVISVP2,2013-12-19 17:06:00,
2013-12-19 12:11:00,32.6,22.9,29.91,East,96,1.0,4.0,67,0.00,,,0.00,120.0,WUHU216DAVISVP2,2013-12-19 17:11:00,
2013-12-19 12:16:00,32.8,23.0,29.91,East,89,1.0,4.0,67,0.00,,,0.00,116.0,WUHU216DAVISVP2,2013-12-19 17:16:00,
2013-12-19 12:21:00,33.2,23.1,29.90,East,92,1.0,4.0,66,0.00,,,0.00,123.0,WUHU216DAVISVP2,2013-12-19 17:21:00,
2013-12-19 12:26:00,33.7,23.3,29.89,East,94,2.0,4.0,65,0.00,,,0.00,144.0,WUHU216DAVISVP2,2013-12-19 17:26:00,
2013-12-19 12:31:00,34.2,23.4,29.89,East,94,1.0,4.0,64,0.00,,,0.00,114.0,WUHU216DAVISVP2,2013-12-19 17:31:00,
2013-12-19 12:36:00,34.1,23.3,29.90,East,83,1.0,4.0,64,0.00,,,0.00,109.0,WUHU216DAVISVP2,2013-12-19 17:36:00,
2013-12-19 12:41:00,34.3,23.1,29.90,ENE,78,1.0,4.0,63,0.00,,,0.00,97.0,WUHU216DAVISVP2,2013-12-19 17:41:00,
2013-12-19 12:46:00,34.2,24.0,29.90,ENE,76,1.0,4.0,66,0.00,,,0.00,95.0,WUHU216DAVISVP2,2013-12-19 17:46:00,
2013-12-19 12:51:00,34.5,23.6,29.90,East,86,1.0,4.0,64,0.00,,,0.00,81.0,WUHU216DAVISVP2,2013-12-19 17:51:00,
2013-12-19 12:56:00,34.5,24.0,29.89,East,86,1.0,4.0,65,0.00,,,0.00,74.0,WUHU216DAVISVP2,2013-12-19 17:56:00,
2013-12-19 13:01:00,34.6,24.0,29.89,East,85,0.0,3.0,65,0.00,,,0.00,90.0,WUHU216DAVISVP2,2013-12-19 18:01:00,
2013-12-19 13:05:00,34.7,24.6,29.89,East,85,1.0,3.0,66,0.00,,,0.00,91.0,WUHU216DAVISVP2,2013-12-19 18:05:00,
2013-12-19 13:10:00,35.0,23.4,29.89,ENE,64,0.0,3.0,62,0.00,,,0.00,121.0,WUHU216DAVISVP2,2013-12-19 18:10:00,
2013-12-19 13:15:00,35.1,25.3,29.89,NE,37,1.0,3.0,67,0.00,,,0.00,109.0,WUHU216DAVISVP2,2013-12-19 18:15:00,
2013-12-19 13:20:00,35.5,24.6,29.89,NE,35,0.0,3.0,64,0.00,,,0.00,107.0,WUHU216DAVISVP2,2013-12-19 18:20:00,
2013-12-19 13:25:00,35.8,24.5,29.89,NE,35,0.0,3.0,63,0.00,,,0.00,105.0,WUHU216DAVISVP2,2013-12-19 18:25:00,
2013-12-19 13:30:00,35.9,23.7,29.89,NE,48,1.0,5.0,61,0.00,,,0.00,113.0,WUHU216DAVISVP2,2013-12-19 18:30:00,
2013-12-19 13:35:00,36.0,24.3,29.89,WNW,282,1.0,5.0,62,0.00,,,0.00,90.0,WUHU216DAVISVP2,2013-12-19 18:35:00,
2013-12-19 13:40:00,36.3,23.7,29.89,WNW,282,1.0,5.0,60,0.00,,,0.00,84.0,WUHU216DAVISVP2,2013-12-19 18:40:00,
2013-12-19 13:45:00,36.7,22.9,29.89,WNW,294,1.0,8.0,57,0.00,,,0.00,77.0,WUHU216DAVISVP2,2013-12-19 18:45:00,
2013-12-19 13:50:00,36.8,22.1,29.89,West,280,3.0,8.0,55,0.00,,,0.00,70.0,WUHU216DAVISVP2,2013-12-19 18:50:00,
2013-12-19 13:55:00,36.6,22.8,29.89,WNW,298,2.0,8.0,57,0.00,,,0.00,60.0,WUHU216DAVISVP2,2013-12-19 18:55:00,
2013-12-19 14:00:00,36.6,23.3,29.89,WSW,252,2.0,8.0,58,0.00,,,0.00,53.0,WUHU216DAVISVP2,2013-12-19 19:00:00,
2013-12-19 14:05:00,36.6,23.3,29.89,WNW,285,3.0,6.0,58,0.00,,,0.00,60.0,WUHU216DAVISVP2,2013-12-19 19:05:00,
2013-12-19 14:10:00,36.4,23.5,29.89,WNW,286,1.0,6.0,59,0.00,,,0.00,58.0,WUHU216DAVISVP2,2013-12-19 19:10:00,
2013-12-19 14:15:00,36.5,22.7,29.89,WNW,298,1.0,4.0,57,0.00,,,0.00,54.0,WUHU216DAVISVP2,2013-12-19 19:15:00,
2013-12-19 14:20:00,36.5,23.2,29.89,WNW,298,1.0,4.0,58,0.00,,,0.00,54.0,WUHU216DAVISVP2,2013-12-19 19:20:00,
2013-12-19 14:25:00,36.5,23.2,29.89,NW,326,4.0,4.0,58,0.00,,,0.00,46.0,WUHU216DAVISVP2,2013-12-19 19:25:00,
2013-12-19 14:30:00,36.7,22.9,29.89,WSW,255,2.0,4.0,57,0.00,,,0.00,40.0,WUHU216DAVISVP2,2013-12-19 19:30:00,
2013-12-19 14:35:00,36.6,23.3,29.89,WNW,299,2.0,4.0,58,0.00,,,0.00,37.0,WUHU216DAVISVP2,2013-12-19 19:35:00,
2013-12-19 14:40:00,36.4,23.5,29.89,WNW,300,2.0,4.0,59,0.00,,,0.00,40.0,WUHU216DAVISVP2,2013-12-19 19:40:00,
2013-12-19 14:45:00,36.3,23.4,29.90,WNW,300,2.0,4.0,59,0.00,,,0.00,42.0,WUHU216DAVISVP2,2013-12-19 19:45:00,
2013-12-19 14:50:00,36.2,23.3,29.90,WNW,300,0.0,4.0,59,0.00,,,0.00,53.0,WUHU216DAVISVP2,2013-12-19 19:50:00,
2013-12-19 14:55:00,36.4,23.5,29.90,WNW,300,1.0,3.0,59,0.00,,,0.00,47.0,WUHU216DAVISVP2,2013-12-19 19:55:00,
2013-12-19 15:00:00,36.2,23.7,29.90,WNW,299,2.0,3.0,60,0.00,,,0.00,25.0,WUHU216DAVISVP2,2013-12-19 20:00:00,
2013-12-19 15:05:00,36.1,23.9,29.90,WNW,300,2.0,3.0,61,0.00,,,0.00,18.0,WUHU216DAVISVP2,2013-12-19 20:05:00,
2013-12-19 15:10:00,35.8,23.7,29.91,WNW,300,1.0,3.0,61,0.00,,,0.00,19.0,WUHU216DAVISVP2,2013-12-19 20:10:00,
2013-12-19 15:15:00,36.0,23.4,29.91,WNW,293,1.0,3.0,60,0.00,,,0.00,19.0,WUHU216DAVISVP2,2013-12-19 20:15:00,
2013-12-19 15:20:00,35.9,24.1,29.91,WNW,293,1.0,3.0,62,0.00,,,0.00,19.0,WUHU216DAVISVP2,2013-12-19 20:20:00,
2013-12-19 15:25:00,35.8,23.7,29.91,WNW,293,1.0,3.0,61,0.00,,,0.00,19.0,WUHU216DAVISVP2,2013-12-19 20:25:00,
2013-12-19 15:43:00,36.1,24.4,29.92,WSW,242,1.0,3.0,62,0.00,,,0.00,7.0,WUHU216DAVISVP2,2013-12-19 20:43:00,
2013-12-19 15:48:00,35.7,24.8,29.92,WSW,242,1.0,3.0,64,0.00,,,0.00,7.0,WUHU216DAVISVP2,2013-12-19 20:48:00,
2013-12-19 15:53:00,35.8,24.0,29.92,WSW,239,1.0,3.0,62,0.00,,,0.00,5.0,WUHU216DAVISVP2,2013-12-19 20:53:00,
2013-12-19 15:58:00,35.8,24.5,29.92,WSW,239,1.0,2.0,63,0.00,,,0.00,5.0,WUHU216DAVISVP2,2013-12-19 20:58:00,
2013-12-19 16:03:00,35.1,24.2,29.92,WSW,244,0.0,2.0,64,0.00,,,0.00,0.0,WUHU216DAVISVP2,2013-12-19 21:03:00,
2013-12-19 16:08:00,34.3,24.1,29.93,WSW,242,2.0,3.0,66,0.00,,,0.00,0.0,WUHU216DAVISVP2,2013-12-19 21:08:00,
2013-12-19 16:13:00,32.6,24.3,29.93,West,259,0.0,3.0,71,0.00,,,0.00,0.0,WUHU216DAVISVP2,2013-12-19 21:13:00,
2013-12-19 16:18:00,32.4,24.4,29.93,West,276,2.0,4.0,72,0.00,,,0.00,0.0,WUHU216DAVISVP2,2013-12-19 21:18:00,
2013-12-19 16:23:00,32.7,24.4,29.93,WSW,245,2.0,7.0,71,0.00,,,0.00,0.0,WUHU216DAVISVP2,2013-12-19 21:23:00,
2013-12-19 16:28:00,31.9,24.2,29.93,West,281,3.0,7.0,73,0.00,,,0.00,0.0,WUHU216DAVISVP2,2013-12-19 21:28:00,
2013-12-19 16:33:00,31.7,24.4,29.93,WSW,254,2.0,7.0,74,0.00,,,0.00,0.0,WUHU216DAVISVP2,2013-12-19 21:33:00,
2013-12-19 16:39:00,30.6,23.9,29.93,West,266,1.0,7.0,76,0.00,,,0.00,0.0,WUHU216DAVISVP2,2013-12-19 21:39:00,
2013-12-19 16:45:00,30.2,24.2,29.93,West,266,1.0,4.0,78,0.00,,,0.00,0.0,WUHU216DAVISVP2,2013-12-19 21:45:00,
2013-12-19 16:50:00,29.9,24.2,29.93,West,266,2.0,3.0,79,0.00,,,0.00,0.0,WUHU216DAVISVP2,2013-12-19 21:50:00,
2013-12-19 16:55:00,29.7,24.0,29.94,West,266,0.0,3.0,79,0.00,,,0.00,0.0,WUHU216DAVISVP2,2013-12-19 21:55:00,
2013-12-19 17:00:00,29.4,23.7,29.94,West,266,0.0,3.0,79,0.00,,,0.00,0.0,WUHU216DAVISVP2,2013-12-19 22:00:00,
2013-12-19 17:05:00,29.1,23.4,29.94,West,266,2.0,3.0,79,0.00,,,0.00,0.0,WUHU216DAVISVP2,2013-12-19 22:05:00,
2013-12-19 17:10:00,29.3,23.9,29.94,West,274,1.0,4.0,80,0.00,,,0.00,0.0,WUHU216DAVISVP2,2013-12-19 22:10:00,
2013-12-19 17:15:00,29.4,24.0,29.95,West,274,1.0,4.0,80,0.00,,,0.00,0.0,WUHU216DAVISVP2,2013-12-19 22:15:00,
2013-12-19 17:20:00,29.4,24.0,29.95,West,274,0.0,4.0,80,0.00,,,0.00,0.0,WUHU216DAVISVP2,2013-12-19 22:20:00,
2013-12-19 17:25:00,29.4,24.0,29.95,West,275,0.0,4.0,80,0.00,,,0.00,0.0,WUHU216DAVISVP2,2013-12-19 22:25:00,
2013-12-19 17:30:00,29.4,24.0,29.95,West,275,1.0,2.0,80,0.00,,,0.00,0.0,WUHU216DAVISVP2,2013-12-19 22:30:00,
2013-12-19 17:35:00,29.3,23.9,29.95,West,275,0.0,2.0,80,0.00,,,0.00,0.0,WUHU216DAVISVP2,2013-12-19 22:35:00,
2013-12-19 17:40:00,29.3,23.9,29.95,West,275,0.0,2.0,80,0.00,,,0.00,0.0,WUHU216DAVISVP2,2013-12-19 22:40:00,
2013-12-19 17:45:00,29.2,23.8,29.95,West,275,2.0,2.0,80,0.00,,,0.00,0.0,WUHU216DAVISVP2,2013-12-19 22:45:00,
2013-12-19 17:50:00,29.1,23.7,29.95,West,275,1.0,2.0,80,0.00,,,0.00,0.0,WUHU216DAVISVP2,2013-12-19 22:50:00,
2013-12-19 17:55:00,29.0,23.6,29.95,West,275,0.0,2.0,80,0.00,,,0.00,0.0,WUHU216DAVISVP2,2013-12-19 22:55:00,
2013-12-19 18:00:00,29.0,23.6,29.95,West,275,0.0,2.0,80,0.00,,,0.00,0.0,WUHU216DAVISVP2,2013-12-19 23:00:00,
2013-12-19 18:05:00,28.9,23.5,29.95,West,275,0.0,2.0,80,0.00,,,0.00,0.0,WUHU216DAVISVP2,2013-12-19 23:05:00,
2013-12-19 18:10:00,28.8,23.4,29.95,West,275,0.0,2.0,80,0.00,,,0.00,0.0,WUHU216DAVISVP2,2013-12-19 23:10:00,
2013-12-19 18:15:00,28.7,23.3,29.95,West,275,0.0,2.0,80,0.00,,,0.00,0.0,WUHU216DAVISVP2,2013-12-19 23:15:00,
2013-12-19 18:20:00,28.7,23.6,29.96,West,275,0.0,2.0,81,0.00,,,0.00,0.0,WUHU216DAVISVP2,2013-12-19 23:20:00,
2013-12-19 18:25:00,28.5,23.1,29.96,West,275,0.0,2.0,80,0.00,,,0.00,0.0,WUHU216DAVISVP2,2013-12-19 23:25:00,
2013-12-19 18:30:00,28.4,23.3,29.97,West,275,1.0,2.0,81,0.00,,,0.00,0.0,WUHU216DAVISVP2,2013-12-19 23:30:00,
2013-12-19 18:35:00,28.4,23.3,29.97,West,275,0.0,2.0,81,0.00,,,0.00,0.0,WUHU216DAVISVP2,2013-12-19 23:35:00,
2013-12-19 18:40:00,28.3,23.5,29.97,West,275,0.0,2.0,82,0.00,,,0.00,0.0,WUHU216DAVISVP2,2013-12-19 23:40:00,
2013-12-19 18:45:00,28.3,23.5,29.97,West,275,0.0,2.0,82,0.00,,,0.00,0.0,WUHU216DAVISVP2,2013-12-19 23:45:00,
2013-12-19 18:50:00,28.2,23.4,29.97,West,275,0.0,2.0,82,0.00,,,0.00,0.0,WUHU216DAVISVP2,2013-12-19 23:50:00,
2013-12-19 18:55:00,28.2,23.4,29.97,West,275,0.0,2.0,82,0.00,,,0.00,0.0,WUHU216DAVISVP2,2013-12-19 23:55:00,
2013-12-19 19:00:00,28.1,23.3,29.97,West,275,0.0,1.0,82,0.00,,,0.00,0.0,WUHU216DAVISVP2,2013-12-20 00:00:00,
2013-12-19 19:05:00,28.0,23.2,29.97,West,275,0.0,1.0,82,0.00,,,0.00,0.0,WUHU216DAVISVP2,2013-12-20 00:05:00,
2013-12-19 19:10:00,27.9,23.1,29.97,West,275,0.0,1.0,82,0.00,,,0.00,0.0,WUHU216DAVISVP2,2013-12-20 00:10:00,
2013-12-19 19:15:00,27.9,23.1,29.98,West,275,0.0,1.0,82,0.00,,,0.00,0.0,WUHU216DAVISVP2,2013-12-20 00:15:00,
2013-12-19 19:20:00,27.9,23.1,29.98,West,275,1.0,2.0,82,0.00,,,0.00,0.0,WUHU216DAVISVP2,2013-12-20 00:20:00,
2013-12-19 19:25:00,27.9,23.4,29.98,West,275,0.0,2.0,83,0.00,,,0.00,0.0,WUHU216DAVISVP2,2013-12-20 00:25:00,
2013-12-19 19:30:00,27.9,23.4,29.98,West,275,0.0,2.0,83,0.00,,,0.00,0.0,WUHU216DAVISVP2,2013-12-20 00:30:00,
2013-12-19 19:35:00,27.9,23.7,29.98,West,275,1.0,2.0,84,0.00,,,0.00,0.0,WUHU216DAVISVP2,2013-12-20 00:35:00,
2013-12-19 19:40:00,28.0,23.8,29.99,West,275,1.0,2.0,84,0.00,,,0.00,0.0,WUHU216DAVISVP2,2013-12-20 00:40:00,
2013-12-19 19:45:00,28.1,23.9,29.99,West,275,1.0,2.0,84,0.00,,,0.00,0.0,WUHU216DAVISVP2,2013-12-20 00:45:00,
2013-12-19 19:50:00,28.1,23.9,29.99,West,275,1.0,2.0,84,0.00,,,0.00,0.0,WUHU216DAVISVP2,2013-12-20 00:50:00,
2013-12-19 19:55:00,28.1,23.9,29.99,West,275,0.0,2.0,84,0.00,,,0.00,0.0,WUHU216DAVISVP2,2013-12-20 00:55:00,
2013-12-19 20:00:00,28.2,24.2,30.00,West,275,1.0,2.0,85,0.00,,,0.00,0.0,WUHU216DAVISVP2,2013-12-20 01:00:00,
2013-12-19 20:05:00,28.4,24.5,30.00,West,275,0.0,2.0,85,0.00,,,0.00,0.0,WUHU216DAVISVP2,2013-12-20 01:05:00,
2013-12-19 20:10:00,28.5,24.5,30.00,West,275,1.0,2.0,85,0.00,,,0.00,0.0,WUHU216DAVISVP2,2013-12-20 01:10:00,
2013-12-19 20:15:00,28.6,24.6,30.00,West,275,0.0,2.0,85,0.00,,,0.00,0.0,WUHU216DAVISVP2,2013-12-20 01:15:00,
2013-12-19 20:20:00,28.6,24.6,30.00,West,275,0.0,1.0,85,0.00,,,0.00,0.0,WUHU216DAVISVP2,2013-12-20 01:20:00,
2013-12-19 20:25:00,28.7,24.8,30.01,West,275,0.0,1.0,85,0.00,,,0.00,0.0,WUHU216DAVISVP2,2013-12-20 01:25:00,
2013-12-19 20:30:00,28.8,24.8,30.01,West,275,0.0,1.0,85,0.00,,,0.00,0.0,WUHU216DAVISVP2,2013-12-20 01:30:00,
2013-12-19 20:35:00,28.9,24.9,30.01,West,275,0.0,2.0,85,0.00,,,0.00,0.0,WUHU216DAVISVP2,2013-12-20 01:35:00,
2013-12-19 20:40:00,28.9,24.9,30.01,West,275,0.0,2.0,85,0.00,,,0.00,0.0,WUHU216DAVISVP2,2013-12-20 01:40:00,
2013-12-19 20:45:00,29.0,25.0,30.01,West,275,0.0,2.0,85,0.00,,,0.00,0.0,WUHU216DAVISVP2,2013-12-20 01:45:00,
2013-12-19 20:50:00,29.0,25.0,30.02,West,275,1.0,2.0,85,0.00,,,0.00,0.0,WUHU216DAVISVP2,2013-12-20 01:50:00,
2013-12-19 20:55:00,29.2,25.2,30.02,West,275,0.0,2.0,85,0.00,,,0.00,0.0,WUHU216DAVISVP2,2013-12-20 01:55:00,
2013-12-19 21:00:00,29.3,25.3,30.02,West,275,0.0,2.0,85,0.00,,,0.00,0.0,WUHU216DAVISVP2,2013-12-20 02:00:00,
2013-12-19 21:05:00,29.3,25.3,30.02,West,275,0.0,2.0,85,0.00,,,0.00,0.0,WUHU216DAVISVP2,2013-12-20 02:05:00,
2013-12-19 21:10:00,29.3,25.3,30.02,West,275,0.0,1.0,85,0.00,,,0.00,0.0,WUHU216DAVISVP2,2013-12-20 02:10:00,
2013-12-19 21:15:00,29.4,25.4,30.02,West,275,0.0,1.0,85,0.00,,,0.00,0.0,WUHU216DAVISVP2,2013-12-20 02:15:00,
2013-12-19 21:20:00,29.5,25.5,30.02,West,275,0.0,1.0,85,0.00,,,0.00,0.0,WUHU216DAVISVP2,2013-12-20 02:20:00,
2013-12-19 21:25:00,29.5,25.5,30.03,West,275,0.0,1.0,85,0.00,,,0.00,0.0,WUHU216DAVISVP2,2013-12-20 02:25:00,
2013-12-19 21:30:00,29.6,25.6,30.03,West,275,0.0,1.0,85,0.00,,,0.00,0.0,WUHU216DAVISVP2,2013-12-20 02:30:00,
2013-12-19 21:35:00,29.7,25.7,30.03,West,275,1.0,1.0,85,0.00,,,0.00,0.0,WUHU216DAVISVP2,2013-12-20 02:35:00,
2013-12-19 21:40:00,29.8,25.8,30.03,West,275,0.0,2.0,85,0.00,,,0.00,0.0,WUHU216DAVISVP2,2013-12-20 02:40:00,
2013-12-19 21:45:00,29.8,25.8,30.03,West,275,0.0,2.0,85,0.00,,,0.00,0.0,WUHU216DAVISVP2,2013-12-20 02:45:00,
2013-12-19 21:50:00,29.8,25.8,30.03,West,275,0.0,2.0,85,0.00,,,0.00,0.0,WUHU216DAVISVP2,2013-12-20 02:50:00,
2013-12-19 21:55:00,29.9,25.9,30.03,West,275,0.0,2.0,85,0.00,,,0.00,0.0,WUHU216DAVISVP2,2013-12-20 02:55:00,
2013-12-19 22:00:00,29.9,25.9,30.03,West,275,0.0,2.0,85,0.00,,,0.00,0.0,WUHU216DAVISVP2,2013-12-20 03:00:00,
2013-12-19 22:05:00,30.0,26.0,30.03,West,275,0.0,2.0,85,0.00,,,0.00,0.0,WUHU216DAVISVP2,2013-12-20 03:05:00,
2013-12-19 22:10:00,30.0,26.0,30.03,West,275,0.0,1.0,85,0.00,,,0.00,0.0,WUHU216DAVISVP2,2013-12-20 03:10:00,
2013-12-19 22:15:00,30.0,26.0,30.03,West,275,0.0,0.0,85,0.00,,,0.00,0.0,WUHU216DAVISVP2,2013-12-20 03:15:00,
2013-12-19 22:20:00,30.0,26.0,30.03,West,275,0.0,0.0,85,0.00,,,0.00,0.0,WUHU216DAVISVP2,2013-12-20 03:20:00,
2013-12-19 22:25:00,30.0,26.0,30.03,West,275,0.0,1.0,85,0.00,,,0.00,0.0,WUHU216DAVISVP2,2013-12-20 03:25:00,
2013-12-19 22:30:00,30.0,26.0,30.03,West,275,0.0,2.0,85,0.00,,,0.00,0.0,WUHU216DAVISVP2,2013-12-20 03:30:00,
2013-12-19 22:35:00,30.0,26.0,30.03,West,275,0.0,2.0,85,0.00,,,0.00,0.0,WUHU216DAVISVP2,2013-12-20 03:35:00,
2013-12-19 22:40:00,30.1,26.1,30.03,West,275,1.0,2.0,85,0.00,,,0.00,0.0,WUHU216DAVISVP2,2013-12-20 03:40:00,
2013-12-19 22:45:00,30.2,26.2,30.03,West,275,0.0,2.0,85,0.00,,,0.00,0.0,WUHU216DAVISVP2,2013-12-20 03:45:00,
2013-12-19 22:50:00,30.2,26.2,30.03,West,275,1.0,2.0,85,0.00,,,0.00,0.0,WUHU216DAVISVP2,2013-12-20 03:50:00,
2013-12-19 22:55:00,30.3,26.3,30.04,West,275,0.0,4.0,85,0.00,,,0.00,0.0,WUHU216DAVISVP2,2013-12-20 03:55:00,
2013-12-19 23:00:00,30.3,26.3,30.03,West,275,0.0,4.0,85,0.00,,,0.00,0.0,WUHU216DAVISVP2,2013-12-20 04:00:00,
2013-12-19 23:05:00,30.2,26.2,30.03,West,275,1.0,4.0,85,0.00,,,0.00,0.0,WUHU216DAVISVP2,2013-12-20 04:05:00,
2013-12-19 23:10:00,30.2,26.5,30.03,West,275,0.0,4.0,86,0.00,,,0.00,0.0,WUHU216DAVISVP2,2013-12-20 04:10:00,
2013-12-19 23:15:00,30.3,26.6,30.03,West,278,1.0,3.0,86,0.00,,,0.00,0.0,WUHU216DAVISVP2,2013-12-20 04:15:00,
2013-12-19 23:20:00,30.4,26.7,30.03,West,278,0.0,3.0,86,0.00,,,0.00,0.0,WUHU216DAVISVP2,2013-12-20 04:20:00,
2013-12-19 23:25:00,30.4,26.7,30.03,West,278,0.0,3.0,86,0.00,,,0.00,0.0,WUHU216DAVISVP2,2013-12-20 04:25:00,
2013-12-19 23:30:00,30.3,26.6,30.03,West,278,1.0,2.0,86,0.00,,,0.00,0.0,WUHU216DAVISVP2,2013-12-20 04:30:00,
2013-12-19 23:35:00,30.4,26.7,30.03,West,278,0.0,2.0,86,0.00,,,0.00,0.0,WUHU216DAVISVP2,2013-12-20 04:35:00,
2013-12-19 23:40:00,30.5,26.8,30.04,West,278,0.0,2.0,86,0.00,,,0.00,0.0,WUHU216DAVISVP2,2013-12-20 04:40:00,
2013-12-19 23:45:00,30.6,26.9,30.04,WSW,248,1.0,2.0,86,0.00,,,0.00,0.0,WUHU216DAVISVP2,2013-12-20 04:45:00,
2013-12-19 23:50:00,30.7,27.0,30.04,ESE,123,1.0,3.0,86,0.00,,,0.00,0.0,WUHU216DAVISVP2,2013-12-20 04:50:00,
2013-12-19 23:55:00,30.7,26.7,30.04,SSW,205,0.0,3.0,85,0.00,,,0.00,0.0,WUHU216DAVISVP2,2013-12-20 04:55:00,